createdAt,value
2017-01-17T00:00:35.355Z,0
2017-01-17T00:03:06.403Z,0
2017-01-17T00:03:48.103Z,0
2017-01-17T00:04:29.766Z,0
2017-01-17T00:08:50.345Z,0
2017-01-17T00:09:32.071Z,0
2017-01-17T00:10:13.805Z,0
2017-01-17T00:10:55.484Z,0
2017-01-17T00:13:37.183Z,0
2017-01-17T00:14:18.848Z,0
2017-01-17T00:15:00.538Z,0
2017-01-17T00:15:42.273Z,0
2017-01-17T00:16:23.987Z,0
2017-01-17T00:17:05.687Z,0
2017-01-17T00:17:47.410Z,0
2017-01-17T00:20:08.166Z,0
2017-01-17T00:20:49.810Z,0
2017-01-17T00:21:31.549Z,0
2017-01-17T00:22:13.194Z,0
2017-01-17T00:22:54.755Z,0
2017-01-17T00:25:10.093Z,0
2017-01-17T00:25:51.831Z,0
2017-01-17T00:26:33.477Z,0
2017-01-17T00:27:15.259Z,0
2017-01-17T00:27:57.005Z,0
2017-01-17T00:30:28.086Z,0
2017-01-17T00:31:09.864Z,0
2017-01-17T00:31:51.468Z,0
2017-01-17T00:32:33.144Z,0
2017-01-17T00:33:14.908Z,0
2017-01-17T00:33:56.616Z,0
2017-01-17T00:34:38.337Z,0
2017-01-17T00:35:19.974Z,0
2017-01-17T00:37:56.517Z,0
2017-01-17T00:38:38.244Z,0
2017-01-17T00:39:19.926Z,0
2017-01-17T00:40:01.698Z,0
2017-01-17T00:40:43.428Z,0
2017-01-17T00:41:25.128Z,0
2017-01-17T00:42:06.892Z,0
2017-01-17T00:42:48.617Z,0
2017-01-17T00:43:30.369Z,0
2017-01-17T00:44:12.106Z,0
2017-01-17T00:44:53.820Z,0
2017-01-17T00:45:35.539Z,0
2017-01-17T00:48:06.597Z,0
2017-01-17T00:50:37.585Z,0
2017-01-17T00:51:19.119Z,0
2017-01-17T00:52:00.865Z,0
2017-01-17T00:54:37.341Z,0
2017-01-17T00:55:19.064Z,0
2017-01-17T00:56:00.724Z,0
2017-01-17T00:56:42.466Z,0
2017-01-17T01:01:13.576Z,0
2017-01-17T01:01:55.265Z,0
2017-01-17T01:02:36.775Z,0
2017-01-17T01:04:51.918Z,0
2017-01-17T01:05:33.403Z,0
2017-01-17T01:06:15.118Z,0
2017-01-17T01:08:51.361Z,0
2017-01-17T01:11:11.945Z,0
2017-01-17T01:11:53.498Z,0
2017-01-17T01:12:35.293Z,0
2017-01-17T01:15:16.897Z,0
2017-01-17T01:17:53.289Z,0
2017-01-17T01:18:35.037Z,0
2017-01-17T01:19:16.766Z,0
2017-01-17T01:19:58.414Z,0
2017-01-17T01:20:40.180Z,0
2017-01-17T01:21:21.920Z,0
2017-01-17T01:22:03.668Z,0
2017-01-17T01:22:45.401Z,0
2017-01-17T01:23:27.149Z,0
2017-01-17T01:24:08.884Z,0
2017-01-17T01:24:50.533Z,0
2017-01-17T01:25:32.257Z,0
2017-01-17T01:26:14.041Z,0
2017-01-17T01:26:55.714Z,0
2017-01-17T01:27:37.434Z,0
2017-01-17T01:29:58.083Z,0
2017-01-17T01:30:39.847Z,0
2017-01-17T01:31:21.505Z,0
2017-01-17T01:32:03.167Z,0
2017-01-17T01:32:44.846Z,0
2017-01-17T01:33:26.384Z,0
2017-01-17T01:34:08.111Z,0
2017-01-17T01:36:44.426Z,0
2017-01-17T01:39:05.266Z,0
2017-01-17T01:39:46.997Z,0
2017-01-17T01:40:28.811Z,0
2017-01-17T01:41:10.540Z,0
2017-01-17T01:41:52.286Z,0
2017-01-17T01:42:33.912Z,0
2017-01-17T01:44:54.508Z,0
2017-01-17T01:45:36.053Z,0
2017-01-17T01:46:17.816Z,0
2017-01-17T01:46:59.591Z,0
2017-01-17T01:47:41.270Z,0
2017-01-17T01:48:23.037Z,0
2017-01-17T01:50:59.556Z,0
2017-01-17T01:53:30.653Z,0
2017-01-17T01:54:12.419Z,0
2017-01-17T01:54:54.177Z,0
2017-01-17T01:55:35.908Z,0
2017-01-17T01:58:12.304Z,0
2017-01-17T02:00:52.762Z,0
2017-01-17T02:01:33.288Z,0
2017-01-17T02:02:13.825Z,0
2017-01-17T02:02:54.355Z,0
2017-01-17T02:03:34.882Z,0
2017-01-17T02:04:15.408Z,0
2017-01-17T02:04:55.936Z,0
2017-01-17T02:05:36.464Z,0
2017-01-17T02:06:17.017Z,0
2017-01-17T02:06:57.535Z,0
2017-01-17T02:07:38.056Z,0
2017-01-17T02:08:18.584Z,0
2017-01-17T02:08:59.119Z,0
2017-01-17T02:09:39.636Z,0
2017-01-17T02:10:20.161Z,0
2017-01-17T02:11:00.689Z,0
2017-01-17T02:11:41.218Z,0
2017-01-17T02:12:21.736Z,0
2017-01-17T02:13:02.261Z,0
2017-01-17T02:13:42.790Z,0
2017-01-17T02:14:23.318Z,0
2017-01-17T02:15:03.839Z,0
2017-01-17T02:15:44.362Z,0
2017-01-17T02:16:24.892Z,0
2017-01-17T02:17:05.419Z,0
2017-01-17T02:17:45.939Z,0
2017-01-17T02:18:26.468Z,0
2017-01-17T02:19:07.004Z,0
2017-01-17T02:19:47.538Z,0
2017-01-17T02:20:28.073Z,0
2017-01-17T02:21:08.597Z,0
2017-01-17T02:21:49.123Z,0
2017-01-17T02:22:29.661Z,0
2017-01-17T02:23:10.187Z,0
2017-01-17T02:23:50.711Z,0
2017-01-17T02:24:31.237Z,0
2017-01-17T02:25:11.764Z,0
2017-01-17T02:25:52.297Z,0
2017-01-17T02:26:32.824Z,0
2017-01-17T02:27:13.353Z,0
2017-01-17T02:27:53.876Z,0
2017-01-17T02:28:34.418Z,0
2017-01-17T02:29:14.942Z,0
2017-01-17T02:29:55.470Z,0
2017-01-17T02:30:35.988Z,0
2017-01-17T02:31:16.517Z,0
2017-01-17T02:31:57.047Z,0
2017-01-17T02:32:37.571Z,0
2017-01-17T02:33:18.093Z,0
2017-01-17T02:33:58.616Z,0
2017-01-17T02:34:39.146Z,0
2017-01-17T02:35:19.671Z,0
2017-01-17T02:36:00.198Z,0
2017-01-17T02:36:40.723Z,0
2017-01-17T02:37:21.268Z,0
2017-01-17T02:38:01.792Z,0
2017-01-17T02:38:42.324Z,0
2017-01-17T02:39:22.848Z,0
2017-01-17T02:40:03.376Z,0
2017-01-17T02:40:43.907Z,0
2017-01-17T02:41:24.433Z,0
2017-01-17T02:42:04.966Z,0
2017-01-17T02:42:45.493Z,0
2017-01-17T02:43:26.021Z,0
2017-01-17T02:44:06.552Z,0
2017-01-17T02:44:47.085Z,0
2017-01-17T02:45:27.614Z,0
2017-01-17T02:46:08.144Z,0
2017-01-17T02:46:48.673Z,0
2017-01-17T02:47:29.205Z,0
2017-01-17T02:48:09.737Z,0
2017-01-17T02:48:50.253Z,0
2017-01-17T02:49:30.783Z,0
2017-01-17T02:50:11.414Z,0
2017-01-17T02:50:51.940Z,0
2017-01-17T02:51:32.464Z,0
2017-01-17T02:52:12.995Z,0
2017-01-17T02:52:53.683Z,0
2017-01-17T02:53:34.209Z,0
2017-01-17T02:54:14.734Z,0
2017-01-17T02:54:55.264Z,0
2017-01-17T02:55:35.794Z,0
2017-01-17T02:56:16.317Z,0
2017-01-17T02:56:56.843Z,0
2017-01-17T02:57:37.378Z,0
2017-01-17T02:58:17.911Z,0
2017-01-17T02:58:58.441Z,0
2017-01-17T02:59:38.969Z,0
2017-01-17T03:00:19.492Z,0
2017-01-17T03:01:00.021Z,0
2017-01-17T03:01:40.554Z,0
2017-01-17T03:02:21.086Z,0
2017-01-17T03:03:01.614Z,0
2017-01-17T03:03:42.140Z,0
2017-01-17T03:04:22.671Z,0
2017-01-17T03:05:03.200Z,0
2017-01-17T03:05:43.722Z,0
2017-01-17T03:06:24.248Z,0
2017-01-17T03:07:04.785Z,0
2017-01-17T03:07:45.314Z,0
2017-01-17T03:08:25.845Z,0
2017-01-17T03:09:06.370Z,0
2017-01-17T03:09:46.900Z,0
2017-01-17T03:10:27.436Z,0
2017-01-17T03:11:07.968Z,0
2017-01-17T03:11:48.498Z,0
2017-01-17T03:12:29.023Z,0
2017-01-17T03:13:09.549Z,0
2017-01-17T03:13:50.078Z,0
2017-01-17T03:14:30.606Z,0
2017-01-17T03:15:11.125Z,0
2017-01-17T03:15:51.652Z,0
2017-01-17T03:16:32.179Z,0
2017-01-17T03:17:12.709Z,0
2017-01-17T03:17:53.227Z,0
2017-01-17T03:18:33.754Z,0
2017-01-17T03:19:14.283Z,0
2017-01-17T03:19:54.823Z,0
2017-01-17T03:20:35.358Z,0
2017-01-17T03:21:15.875Z,0
2017-01-17T03:21:56.401Z,0
2017-01-17T03:22:36.929Z,0
2017-01-17T03:23:17.459Z,0
2017-01-17T03:23:57.994Z,0
2017-01-17T03:24:38.522Z,0
2017-01-17T03:25:19.048Z,0
2017-01-17T03:25:59.576Z,0
2017-01-17T03:26:40.112Z,0
2017-01-17T03:27:20.643Z,0
2017-01-17T03:28:01.172Z,0
2017-01-17T03:28:41.705Z,0
2017-01-17T03:29:22.235Z,0
2017-01-17T03:30:02.766Z,0
2017-01-17T03:30:43.298Z,0
2017-01-17T03:31:23.828Z,0
2017-01-17T03:32:04.352Z,0
2017-01-17T03:32:44.887Z,0
2017-01-17T03:33:25.418Z,0
2017-01-17T03:34:05.956Z,0
2017-01-17T03:34:46.480Z,0
2017-01-17T03:35:27.009Z,0
2017-01-17T03:36:07.538Z,0
2017-01-17T03:36:48.068Z,0
2017-01-17T03:37:28.597Z,0
2017-01-17T03:38:09.125Z,0
2017-01-17T03:38:49.652Z,0
2017-01-17T03:39:30.175Z,0
2017-01-17T03:40:10.703Z,0
2017-01-17T03:40:51.229Z,0
2017-01-17T03:41:31.754Z,0
2017-01-17T03:42:12.284Z,0
2017-01-17T03:42:52.811Z,0
2017-01-17T03:43:33.342Z,0
2017-01-17T03:44:13.867Z,0
2017-01-17T03:44:54.393Z,0
2017-01-17T03:45:34.923Z,0
2017-01-17T03:46:15.452Z,0
2017-01-17T03:46:55.978Z,0
2017-01-17T03:47:36.499Z,0
2017-01-17T03:48:17.664Z,0
2017-01-17T03:48:58.192Z,0
2017-01-17T03:49:38.731Z,0
2017-01-17T03:50:19.257Z,0
2017-01-17T03:50:59.787Z,0
2017-01-17T03:51:40.319Z,0
2017-01-17T03:52:20.854Z,0
2017-01-17T03:53:01.384Z,0
2017-01-17T03:53:41.914Z,0
2017-01-17T03:54:22.454Z,0
2017-01-17T03:55:02.982Z,0
2017-01-17T03:55:43.514Z,0
2017-01-17T03:56:24.043Z,0
2017-01-17T03:57:04.575Z,0
2017-01-17T03:57:45.110Z,0
2017-01-17T03:58:25.639Z,0
2017-01-17T03:59:06.164Z,0
2017-01-17T03:59:46.700Z,0
2017-01-17T04:00:27.218Z,0
2017-01-17T04:01:07.753Z,0
2017-01-17T04:01:48.282Z,0
2017-01-17T04:02:28.812Z,0
2017-01-17T04:03:09.348Z,0
2017-01-17T04:03:49.870Z,0
2017-01-17T04:04:30.398Z,0
2017-01-17T04:05:10.931Z,0
2017-01-17T04:05:51.466Z,0
2017-01-17T04:06:31.991Z,0
2017-01-17T04:07:12.520Z,0
2017-01-17T04:07:53.048Z,0
2017-01-17T04:08:33.578Z,0
2017-01-17T04:09:14.116Z,0
2017-01-17T04:09:54.655Z,0
2017-01-17T04:10:35.173Z,0
2017-01-17T04:11:15.703Z,0
2017-01-17T04:11:56.234Z,0
2017-01-17T04:12:36.766Z,0
2017-01-17T04:13:17.296Z,0
2017-01-17T04:13:57.823Z,0
2017-01-17T04:14:38.354Z,0
2017-01-17T04:15:18.887Z,0
2017-01-17T04:15:59.409Z,0
2017-01-17T04:16:39.955Z,0
2017-01-17T04:17:20.485Z,0
2017-01-17T04:18:01.015Z,0
2017-01-17T04:18:41.559Z,0
2017-01-17T04:19:22.097Z,0
2017-01-17T04:20:02.630Z,0
2017-01-17T04:20:43.166Z,0
2017-01-17T04:21:23.708Z,0
2017-01-17T04:22:04.232Z,0
2017-01-17T04:22:44.761Z,0
2017-01-17T04:23:25.288Z,0
2017-01-17T04:24:05.827Z,0
2017-01-17T04:24:46.344Z,0
2017-01-17T04:25:26.877Z,0
2017-01-17T04:26:07.414Z,0
2017-01-17T04:26:47.943Z,0
2017-01-17T04:27:28.475Z,0
2017-01-17T04:28:09.008Z,0
2017-01-17T04:28:49.529Z,0
2017-01-17T04:29:30.061Z,0
2017-01-17T04:30:10.591Z,0
2017-01-17T04:30:51.128Z,0
2017-01-17T04:31:31.651Z,0
2017-01-17T04:32:12.185Z,0
2017-01-17T04:32:52.715Z,0
2017-01-17T04:33:33.242Z,0
2017-01-17T04:34:13.785Z,0
2017-01-17T04:34:54.311Z,0
2017-01-17T04:35:34.826Z,0
2017-01-17T04:36:15.357Z,0
2017-01-17T04:36:55.889Z,0
2017-01-17T04:37:36.419Z,0
2017-01-17T04:38:16.947Z,0
2017-01-17T04:40:51.477Z,0
2017-01-17T04:41:32.009Z,0
2017-01-17T04:42:12.527Z,0
2017-01-17T04:42:53.059Z,0
2017-01-17T04:43:33.576Z,0
2017-01-17T04:44:14.100Z,0
2017-01-17T04:44:54.628Z,0
2017-01-17T04:45:35.158Z,0
2017-01-17T04:46:15.690Z,0
2017-01-17T04:46:56.254Z,0
2017-01-17T04:47:36.861Z,0
2017-01-17T04:48:17.791Z,0
2017-01-17T04:48:58.326Z,0
2017-01-17T04:49:38.858Z,0
2017-01-17T04:50:19.380Z,0
2017-01-17T04:50:59.910Z,0
2017-01-17T04:51:40.437Z,0
2017-01-17T04:52:20.991Z,0
2017-01-17T04:53:01.561Z,0
2017-01-17T04:53:42.090Z,0
2017-01-17T04:54:22.630Z,0
2017-01-17T04:55:03.165Z,0
2017-01-17T04:55:43.688Z,0
2017-01-17T04:56:24.227Z,0
2017-01-17T04:57:04.757Z,0
2017-01-17T04:57:45.283Z,0
2017-01-17T04:58:25.820Z,0
2017-01-17T04:59:06.349Z,0
2017-01-17T04:59:47.162Z,0
2017-01-17T05:00:27.717Z,0
2017-01-17T05:01:08.259Z,0
2017-01-17T05:01:48.785Z,0
2017-01-17T05:02:29.358Z,0
2017-01-17T05:03:09.893Z,0
2017-01-17T05:03:50.427Z,0
2017-01-17T05:04:30.952Z,0
2017-01-17T05:05:11.488Z,0
2017-01-17T05:05:52.066Z,0
2017-01-17T05:06:32.599Z,0
2017-01-17T05:07:13.129Z,0
2017-01-17T05:07:53.659Z,0
2017-01-17T05:08:34.201Z,0
2017-01-17T05:09:14.732Z,0
2017-01-17T05:09:55.263Z,0
2017-01-17T05:10:35.790Z,0
2017-01-17T05:11:16.321Z,0
2017-01-17T05:11:56.854Z,0
2017-01-17T05:12:37.387Z,0
2017-01-17T05:13:17.914Z,0
2017-01-17T05:13:58.527Z,0
2017-01-17T05:14:39.059Z,0
2017-01-17T05:15:19.590Z,0
2017-01-17T05:16:00.120Z,0
2017-01-17T05:16:40.647Z,0
2017-01-17T05:17:21.181Z,0
2017-01-17T05:18:01.710Z,0
2017-01-17T05:18:42.241Z,0
2017-01-17T05:19:22.758Z,0
2017-01-17T05:20:03.288Z,0
2017-01-17T05:20:43.826Z,0
2017-01-17T05:21:24.363Z,0
2017-01-17T05:22:04.891Z,0
2017-01-17T05:22:45.413Z,0
2017-01-17T05:23:25.941Z,0
2017-01-17T05:24:06.478Z,0
2017-01-17T05:24:47.005Z,0
2017-01-17T05:25:27.545Z,0
2017-01-17T05:26:08.064Z,0
2017-01-17T05:26:48.594Z,0
2017-01-17T05:27:29.125Z,0
2017-01-17T05:28:09.658Z,0
2017-01-17T05:28:50.197Z,0
2017-01-17T05:29:30.716Z,0
2017-01-17T05:30:11.244Z,0
2017-01-17T05:30:51.787Z,0
2017-01-17T05:31:32.313Z,0
2017-01-17T05:32:12.847Z,0
2017-01-17T05:32:53.369Z,0
2017-01-17T05:33:33.884Z,0
2017-01-17T05:34:14.412Z,0
2017-01-17T05:34:54.934Z,0
2017-01-17T05:35:35.454Z,0
2017-01-17T05:36:15.977Z,0
2017-01-17T05:36:56.517Z,0
2017-01-17T05:37:37.052Z,0
2017-01-17T05:38:17.572Z,0
2017-01-17T05:38:58.098Z,0
2017-01-17T05:39:38.645Z,0
2017-01-17T05:40:19.170Z,0
2017-01-17T05:40:59.723Z,0
2017-01-17T05:41:40.253Z,0
2017-01-17T05:42:20.775Z,0
2017-01-17T05:43:01.297Z,0
2017-01-17T05:43:41.841Z,0
2017-01-17T05:44:22.368Z,0
2017-01-17T05:45:02.905Z,0
2017-01-17T05:45:43.438Z,0
2017-01-17T05:46:23.969Z,0
2017-01-17T05:47:04.493Z,0
2017-01-17T05:47:45.028Z,0
2017-01-17T05:48:25.558Z,0
2017-01-17T05:49:06.089Z,0
2017-01-17T05:49:46.617Z,0
2017-01-17T05:50:27.152Z,0
2017-01-17T05:51:07.676Z,0
2017-01-17T05:51:48.211Z,0
2017-01-17T05:52:28.736Z,0
2017-01-17T05:53:09.266Z,0
2017-01-17T05:53:49.798Z,0
2017-01-17T05:54:30.330Z,0
2017-01-17T05:55:10.859Z,0
2017-01-17T05:55:51.383Z,0
2017-01-17T05:56:31.907Z,0
2017-01-17T05:57:12.445Z,0
2017-01-17T05:57:52.977Z,0
2017-01-17T05:58:33.514Z,0
2017-01-17T05:59:14.030Z,0
2017-01-17T05:59:54.559Z,0
2017-01-17T06:00:35.091Z,0
2017-01-17T06:01:15.632Z,0
2017-01-17T06:01:56.164Z,0
2017-01-17T06:02:36.687Z,0
2017-01-17T06:03:17.219Z,0
2017-01-17T06:03:57.742Z,0
2017-01-17T06:04:38.266Z,0
2017-01-17T06:05:18.795Z,0
2017-01-17T06:05:59.324Z,0
2017-01-17T06:06:39.852Z,0
2017-01-17T06:07:20.384Z,0
2017-01-17T06:08:00.916Z,0
2017-01-17T06:08:41.436Z,0
2017-01-17T06:09:21.965Z,0
2017-01-17T06:10:02.502Z,0
2017-01-17T06:10:43.040Z,0
2017-01-17T06:11:23.586Z,0
2017-01-17T06:12:04.079Z,0
2017-01-17T06:12:44.616Z,0
2017-01-17T06:13:25.146Z,0
2017-01-17T06:14:05.683Z,0
2017-01-17T06:14:46.207Z,0
2017-01-17T06:15:26.735Z,0
2017-01-17T06:16:07.269Z,0
2017-01-17T06:16:47.798Z,0
2017-01-17T06:17:28.326Z,0
2017-01-17T06:18:08.851Z,0
2017-01-17T06:18:49.368Z,0
2017-01-17T06:19:29.900Z,0
2017-01-17T06:20:10.424Z,0
2017-01-17T06:20:50.944Z,0
2017-01-17T06:21:31.469Z,0
2017-01-17T06:22:11.997Z,0
2017-01-17T06:22:52.530Z,0
2017-01-17T06:23:33.048Z,0
2017-01-17T06:24:13.590Z,0
2017-01-17T06:24:54.112Z,0
2017-01-17T06:25:34.642Z,0
2017-01-17T06:26:15.177Z,0
2017-01-17T06:26:55.690Z,0
2017-01-17T06:27:36.220Z,0
2017-01-17T06:28:16.749Z,0
2017-01-17T06:28:57.278Z,0
2017-01-17T06:29:37.801Z,0
2017-01-17T06:30:18.326Z,0
2017-01-17T06:30:58.861Z,0
2017-01-17T06:31:39.393Z,0
2017-01-17T06:32:19.920Z,0
2017-01-17T06:33:00.453Z,0
2017-01-17T06:33:40.975Z,0
2017-01-17T06:34:21.515Z,0
2017-01-17T06:35:02.047Z,0
2017-01-17T06:35:42.581Z,0
2017-01-17T06:36:23.118Z,0
2017-01-17T06:37:03.638Z,0
2017-01-17T06:37:44.170Z,0
2017-01-17T06:38:24.702Z,0
2017-01-17T06:39:05.233Z,0
2017-01-17T06:39:45.755Z,0
2017-01-17T06:40:26.339Z,0
2017-01-17T06:41:06.868Z,0
2017-01-17T06:41:47.376Z,0
2017-01-17T06:42:27.908Z,0
2017-01-17T06:43:08.445Z,0
2017-01-17T06:43:48.954Z,0
2017-01-17T06:44:29.484Z,0
2017-01-17T06:45:10.020Z,0
2017-01-17T06:45:50.553Z,0
2017-01-17T06:46:31.080Z,0
2017-01-17T06:47:11.606Z,0
2017-01-17T06:47:52.135Z,0
2017-01-17T06:48:32.784Z,0
2017-01-17T06:49:13.270Z,0
2017-01-17T06:49:53.799Z,0
2017-01-17T06:50:34.332Z,0
2017-01-17T06:51:14.863Z,0
2017-01-17T06:51:55.397Z,0
2017-01-17T06:52:35.928Z,0
2017-01-17T06:53:16.472Z,0
2017-01-17T06:53:56.993Z,0
2017-01-17T06:54:37.539Z,0
2017-01-17T06:55:18.067Z,0
2017-01-17T06:55:58.605Z,0
2017-01-17T06:56:39.139Z,0
2017-01-17T06:57:19.697Z,0
2017-01-17T06:58:00.231Z,0
2017-01-17T06:58:40.754Z,0
2017-01-17T06:59:21.282Z,0
2017-01-17T07:00:01.809Z,0
2017-01-17T07:00:42.339Z,0
2017-01-17T07:01:22.871Z,0
2017-01-17T07:02:03.400Z,0
2017-01-17T07:02:43.923Z,0
2017-01-17T07:03:24.458Z,0
2017-01-17T07:04:04.991Z,0
2017-01-17T07:04:45.520Z,0
2017-01-17T07:05:26.047Z,0
2017-01-17T07:06:06.575Z,0
2017-01-17T07:06:47.110Z,0
2017-01-17T07:07:27.637Z,0
2017-01-17T07:08:08.159Z,0
2017-01-17T07:08:48.691Z,0
2017-01-17T07:09:29.221Z,0
2017-01-17T07:10:09.763Z,0
2017-01-17T07:10:50.287Z,0
2017-01-17T07:11:30.811Z,0
2017-01-17T07:12:11.344Z,0
2017-01-17T07:12:51.874Z,0
2017-01-17T07:13:32.409Z,0
2017-01-17T07:14:12.917Z,0
2017-01-17T07:14:53.452Z,0
2017-01-17T07:15:33.986Z,0
2017-01-17T07:16:14.516Z,0
2017-01-17T07:16:55.041Z,0
2017-01-17T07:17:35.573Z,0
2017-01-17T07:18:16.105Z,0
2017-01-17T07:18:56.637Z,0
2017-01-17T07:19:37.159Z,0
2017-01-17T07:20:17.683Z,0
2017-01-17T07:20:58.216Z,0
2017-01-17T07:21:38.740Z,0
2017-01-17T07:22:19.277Z,0
2017-01-17T07:22:59.809Z,0
2017-01-17T07:23:40.339Z,0
2017-01-17T07:24:20.875Z,0
2017-01-17T07:25:01.432Z,5
2017-01-17T07:25:41.956Z,5
2017-01-17T07:26:22.487Z,5
2017-01-17T07:27:03.024Z,5
2017-01-17T07:27:43.558Z,5
2017-01-17T07:28:24.085Z,5
2017-01-17T07:29:04.624Z,5
2017-01-17T07:29:45.163Z,5
2017-01-17T07:30:25.690Z,5
2017-01-17T07:31:06.221Z,5
2017-01-17T07:31:46.752Z,5
2017-01-17T07:32:27.281Z,10
2017-01-17T07:33:07.811Z,10
2017-01-17T07:33:48.358Z,10
2017-01-17T07:34:28.891Z,10
2017-01-17T07:35:09.471Z,10
2017-01-17T07:35:50.003Z,10
2017-01-17T07:36:30.527Z,10
2017-01-17T07:37:11.076Z,10
2017-01-17T07:37:51.601Z,10
2017-01-17T07:38:32.131Z,10
2017-01-17T07:39:12.669Z,15
2017-01-17T07:39:53.208Z,15
2017-01-17T07:40:33.744Z,15
2017-01-17T07:41:14.275Z,15
2017-01-17T07:41:54.803Z,15
2017-01-17T07:42:35.334Z,15
2017-01-17T07:43:15.867Z,15
2017-01-17T07:43:56.399Z,15
2017-01-17T07:44:36.937Z,15
2017-01-17T07:45:17.479Z,15
2017-01-17T07:45:58.028Z,20
2017-01-17T07:46:38.559Z,20
2017-01-17T07:47:19.088Z,20
2017-01-17T07:47:59.620Z,20
2017-01-17T07:48:40.150Z,20
2017-01-17T07:49:20.667Z,20
2017-01-17T07:50:01.198Z,20
2017-01-17T07:50:41.727Z,25
2017-01-17T07:51:22.261Z,25
2017-01-17T07:52:02.797Z,25
2017-01-17T07:52:43.331Z,25
2017-01-17T07:53:23.853Z,25
2017-01-17T07:54:04.381Z,25
2017-01-17T07:54:44.917Z,25
2017-01-17T07:55:25.451Z,25
2017-01-17T07:56:05.984Z,30
2017-01-17T07:56:46.514Z,30
2017-01-17T07:57:27.031Z,30
2017-01-17T07:58:07.571Z,30
2017-01-17T07:58:48.103Z,30
2017-01-17T07:59:28.635Z,30
2017-01-17T08:00:09.166Z,30
2017-01-17T08:00:49.701Z,30
2017-01-17T08:01:30.243Z,30
2017-01-17T08:02:10.765Z,35
2017-01-17T08:02:51.308Z,35
2017-01-17T08:03:31.838Z,35
2017-01-17T08:04:12.370Z,35
2017-01-17T08:04:52.902Z,35
2017-01-17T08:05:33.427Z,35
2017-01-17T08:06:13.962Z,35
2017-01-17T08:06:54.503Z,35
2017-01-17T08:07:35.041Z,40
2017-01-17T08:08:15.577Z,40
2017-01-17T08:08:56.107Z,40
2017-01-17T08:09:36.636Z,40
2017-01-17T08:10:17.165Z,40
2017-01-17T08:10:57.694Z,40
2017-01-17T08:11:38.229Z,45
2017-01-17T08:12:19.172Z,45
2017-01-17T08:12:59.871Z,45
2017-01-17T08:13:40.772Z,45
2017-01-17T08:14:22.123Z,45
2017-01-17T08:15:02.819Z,45
2017-01-17T08:15:44.088Z,50
2017-01-17T08:16:25.305Z,50
2017-01-17T08:17:06.311Z,50
2017-01-17T08:17:47.496Z,50
2017-01-17T08:18:28.533Z,50
2017-01-17T08:19:09.512Z,50
2017-01-17T08:19:50.619Z,50
2017-01-17T08:20:31.249Z,50
2017-01-17T08:21:11.841Z,50
2017-01-17T08:21:52.376Z,50
2017-01-17T08:22:32.917Z,55
2017-01-17T08:23:13.454Z,55
2017-01-17T08:23:53.973Z,55
2017-01-17T08:24:34.503Z,55
2017-01-17T08:25:15.046Z,55
2017-01-17T08:25:55.561Z,55
2017-01-17T08:26:36.084Z,55
2017-01-17T08:27:16.605Z,55
2017-01-17T08:27:57.137Z,60
2017-01-17T08:28:37.679Z,60
2017-01-17T08:29:18.215Z,60
2017-01-17T08:29:58.740Z,60
2017-01-17T08:30:39.272Z,60
2017-01-17T08:31:19.806Z,60
2017-01-17T08:32:00.328Z,60
2017-01-17T08:32:40.870Z,60
2017-01-17T08:33:21.403Z,60
2017-01-17T08:34:01.926Z,60
2017-01-17T08:34:42.452Z,65
2017-01-17T08:35:22.976Z,65
2017-01-17T08:36:03.522Z,65
2017-01-17T08:36:44.051Z,65
2017-01-17T08:37:24.577Z,65
2017-01-17T08:38:05.105Z,70
2017-01-17T08:38:45.624Z,70
2017-01-17T08:39:26.148Z,70
2017-01-17T08:40:06.663Z,75
2017-01-17T08:40:47.196Z,75
2017-01-17T08:41:27.727Z,75
2017-01-17T08:42:08.255Z,80
2017-01-17T08:42:48.798Z,80
2017-01-17T08:43:29.335Z,80
2017-01-17T08:44:09.868Z,80
2017-01-17T08:44:50.383Z,80
2017-01-17T08:45:30.920Z,80
2017-01-17T08:46:11.456Z,80
2017-01-17T08:46:51.990Z,80
2017-01-17T08:47:32.521Z,80
2017-01-17T08:48:13.052Z,80
2017-01-17T08:48:53.582Z,80
2017-01-17T08:49:34.115Z,80
2017-01-17T08:50:14.646Z,80
2017-01-17T08:50:55.178Z,80
2017-01-17T08:51:35.708Z,80
2017-01-17T08:52:16.244Z,80
2017-01-17T08:52:56.777Z,85
2017-01-17T08:53:37.311Z,85
2017-01-17T08:54:17.844Z,85
2017-01-17T08:54:58.376Z,90
2017-01-17T08:55:38.908Z,90
2017-01-17T08:56:19.437Z,90
2017-01-17T08:56:59.964Z,95
2017-01-17T08:57:40.500Z,95
2017-01-17T08:58:21.032Z,100
2017-01-17T08:59:01.556Z,95
2017-01-17T08:59:42.085Z,100
2017-01-17T09:00:22.616Z,105
2017-01-17T09:01:03.146Z,110
2017-01-17T09:01:43.678Z,115
2017-01-17T09:02:24.212Z,140
2017-01-17T09:03:04.749Z,170
2017-01-17T09:03:45.288Z,160
2017-01-17T09:04:25.831Z,135
2017-01-17T09:05:06.342Z,150
2017-01-17T09:05:46.875Z,215
2017-01-17T09:06:27.395Z,180
2017-01-17T09:07:07.965Z,140
2017-01-17T09:07:48.500Z,120
2017-01-17T09:08:29.032Z,120
2017-01-17T09:09:09.571Z,125
2017-01-17T09:09:50.104Z,160
2017-01-17T09:10:30.633Z,135
2017-01-17T09:11:11.163Z,130
2017-01-17T09:11:51.695Z,140
2017-01-17T09:12:32.225Z,140
2017-01-17T09:13:12.773Z,150
2017-01-17T09:13:53.303Z,150
2017-01-17T09:14:33.838Z,155
2017-01-17T09:15:14.373Z,160
2017-01-17T09:15:54.915Z,170
2017-01-17T09:16:35.460Z,185
2017-01-17T09:17:15.993Z,220
2017-01-17T09:17:56.525Z,240
2017-01-17T09:18:37.061Z,325
2017-01-17T09:19:17.588Z,185
2017-01-17T09:19:58.120Z,180
2017-01-17T09:20:38.653Z,180
2017-01-17T09:21:19.195Z,185
2017-01-17T09:21:59.729Z,195
2017-01-17T09:22:40.263Z,180
2017-01-17T09:23:20.801Z,165
2017-01-17T09:24:01.337Z,155
2017-01-17T09:24:41.870Z,150
2017-01-17T09:25:22.406Z,145
2017-01-17T09:26:02.945Z,135
2017-01-17T09:26:43.489Z,135
2017-01-17T09:27:24.013Z,145
2017-01-17T09:28:04.538Z,130
2017-01-17T09:28:45.075Z,130
2017-01-17T09:29:25.608Z,135
2017-01-17T09:30:06.143Z,135
2017-01-17T09:30:46.671Z,140
2017-01-17T09:31:27.205Z,145
2017-01-17T09:32:07.735Z,145
2017-01-17T09:32:48.275Z,160
2017-01-17T09:33:28.885Z,170
2017-01-17T09:34:09.419Z,185
2017-01-17T09:34:49.954Z,185
2017-01-17T09:35:30.489Z,170
2017-01-17T09:36:11.025Z,165
2017-01-17T09:36:51.562Z,165
2017-01-17T09:37:32.094Z,165
2017-01-17T09:38:12.629Z,160
2017-01-17T09:38:53.168Z,155
2017-01-17T09:39:33.700Z,155
2017-01-17T09:40:14.233Z,155
2017-01-17T09:40:54.780Z,160
2017-01-17T09:41:35.318Z,165
2017-01-17T09:42:15.846Z,180
2017-01-17T09:42:56.385Z,205
2017-01-17T09:43:36.914Z,205
2017-01-17T09:44:17.443Z,210
2017-01-17T09:44:57.983Z,185
2017-01-17T09:45:38.520Z,165
2017-01-17T09:46:19.057Z,160
2017-01-17T09:46:59.600Z,165
2017-01-17T09:47:40.121Z,185
2017-01-17T09:48:20.649Z,210
2017-01-17T09:49:01.189Z,210
2017-01-17T09:49:41.723Z,215
2017-01-17T09:50:22.265Z,225
2017-01-17T09:51:02.802Z,220
2017-01-17T09:51:43.324Z,210
2017-01-17T09:52:23.861Z,205
2017-01-17T09:53:04.392Z,195
2017-01-17T09:53:44.925Z,185
2017-01-17T09:54:25.462Z,180
2017-01-17T09:55:06.009Z,175
2017-01-17T09:55:46.541Z,175
2017-01-17T09:56:27.069Z,170
2017-01-17T09:57:07.602Z,175
2017-01-17T09:57:48.140Z,170
2017-01-17T09:58:28.669Z,175
2017-01-17T09:59:09.209Z,175
2017-01-17T09:59:49.740Z,175
2017-01-17T10:00:30.283Z,175
2017-01-17T10:01:10.799Z,175
2017-01-17T10:01:51.341Z,170
2017-01-17T10:02:31.881Z,170
2017-01-17T10:03:12.411Z,165
2017-01-17T10:03:52.940Z,165
2017-01-17T10:04:33.479Z,160
2017-01-17T10:05:14.012Z,160
2017-01-17T10:05:54.544Z,160
2017-01-17T10:06:35.078Z,155
2017-01-17T10:07:15.615Z,155
2017-01-17T10:07:56.150Z,160
2017-01-17T10:08:36.678Z,160
2017-01-17T10:09:17.203Z,155
2017-01-17T10:09:57.735Z,155
2017-01-17T10:10:38.265Z,145
2017-01-17T10:11:18.793Z,145
2017-01-17T10:11:59.325Z,150
2017-01-17T10:12:39.858Z,155
2017-01-17T10:13:20.389Z,160
2017-01-17T10:14:00.924Z,160
2017-01-17T10:14:41.468Z,165
2017-01-17T10:15:22.002Z,170
2017-01-17T10:16:02.529Z,170
2017-01-17T10:16:43.058Z,170
2017-01-17T10:17:23.594Z,170
2017-01-17T10:18:04.133Z,165
2017-01-17T10:18:44.671Z,165
2017-01-17T10:19:25.200Z,165
2017-01-17T10:20:05.737Z,155
2017-01-17T10:20:46.270Z,155
2017-01-17T10:21:26.805Z,160
2017-01-17T10:22:07.333Z,155
2017-01-17T10:22:47.868Z,150
2017-01-17T10:23:28.406Z,140
2017-01-17T10:24:08.936Z,145
2017-01-17T10:24:49.469Z,140
2017-01-17T10:25:30.007Z,140
2017-01-17T10:26:10.565Z,140
2017-01-17T10:26:51.096Z,130
2017-01-17T10:27:31.630Z,125
2017-01-17T10:28:12.155Z,130
2017-01-17T10:28:52.686Z,130
2017-01-17T10:29:33.219Z,135
2017-01-17T10:30:13.750Z,140
2017-01-17T10:30:54.280Z,140
2017-01-17T10:31:34.809Z,135
2017-01-17T10:32:15.343Z,135
2017-01-17T10:32:55.859Z,130
2017-01-17T10:33:36.396Z,140
2017-01-17T10:34:16.933Z,135
2017-01-17T10:34:57.465Z,135
2017-01-17T10:35:37.999Z,135
2017-01-17T10:36:18.530Z,135
2017-01-17T10:36:59.069Z,130
2017-01-17T10:37:39.593Z,125
2017-01-17T10:38:20.134Z,125
2017-01-17T10:39:00.666Z,120
2017-01-17T10:39:41.186Z,115
2017-01-17T10:40:21.723Z,120